Torun, Poland
Current Conditions -  °F | °C
As of 1:30 AM on Sunday 21 Dec 2014 (Local Time) from EPBY Reporting Station
Rain Showers Rain Showers  
Wind Chill: 27°   Ceiling: 1700
Heat Index: 37°   Visibility: 6mi
Dew Point: 36°   Wind: 21mph
Humidity: 93%   Direction: 260°W
Pressure: 29.68"   Gusts: 32mph
Location:  53.02°N, 18.61°E
Report Text: EPBY 202330Z 26018G28KT 9999 -SHRA SCT011 BKN017CB 03/02 Q1005
Loading
Personal Weather Stations






























Interactive Weather Map New forecast layout! Learn more

10-Day Weather Forecast

Advertisements
Track Severe Weather on mobile